Conroe's Hourly Summary for Saturday, March 18, 2017
Hour Temp
(f)
RH
(%)
Solar Rad.
(MJ/m2)
Rainfall
(in)
Wind
(mph)
3/18/2017 12:00 AM 63 81 0 0 0.06
3/18/2017 1:00 AM 62 87 0 0 0.05
3/18/2017 2:00 AM 60 89 0 0 0
3/18/2017 3:00 AM 60 100 0 0 0.02
3/18/2017 4:00 AM 60 100 0 0 0.27
3/18/2017 5:00 AM 60 100 0 0 0.38
3/18/2017 6:00 AM 60 100 0 0 0.11
3/18/2017 7:00 AM 61 99 0.02 0 0.25
3/18/2017 8:00 AM 62 99 0.28 0 0.7
3/18/2017 9:00 AM 64 99 0.64 0 0.85
3/18/2017 10:00 AM 70 70 1.66 0 1.23
3/18/2017 11:00 AM 75 58 1.56 0 1.31
3/18/2017 12:00 PM 77 52 2.28 0 2.06
3/18/2017 1:00 PM 79 42 2.23 0 1.83
3/18/2017 2:00 PM 82 39 2.96 0 2.37
3/18/2017 3:00 PM 83 37 1.82 0 1.65
3/18/2017 4:00 PM 82 42 0.74 0 0.43
3/18/2017 5:00 PM 82 42 0.88 0 0.76
3/18/2017 6:00 PM 82 42 0.7 0 2.4
3/18/2017 7:00 PM 76 57 0.05 0 2.67
3/18/2017 8:00 PM 73 66 0 0 0.9
3/18/2017 9:00 PM 71 74 0 0 0.17
3/18/2017 10:00 PM 70 79 0 0 0.02
3/18/2017 11:00 PM 71 73 0 0 0.59
Data Summary 70 71 15.82 0.00 0.88